Terminal Aerodrome Forecast
Issued by NWS Cleveland, OH

Home | Current Version | Previous Version | Graphics & Text | Print | Product List | Glossary On
Versions: 1 2 3 4 5 6 7 8 9 10 11 12 13 14 15 16 17 18 19 20 21
201
FTUS41 KCLE 151132
TAFTOL
TAF
KTOL 151132Z 1512/1612 23010KT 2SM BR OVC005
      TEMPO 1512/1516 3SM BR SCT007 BKN020
     FM151600 23009KT P6SM SCT020 BKN040
     FM151800 23010KT 3SM -RA OVC010
     FM152300 26007KT 1/2SM -RA FG OVC003
     FM160900 32010KT P6SM BKN020=

USA.gov is the U.S. government's official web portal to all federal, state and local government web resources and services.